sensor_id;sensor_type;location;lat;lon;timestamp;temperature;humidity
680;DHT22;322;48.846;9.230;2023-03-25T00:02:08;8.80;91.20
680;DHT22;322;48.846;9.230;2023-03-25T00:04:36;8.70;91.10
680;DHT22;322;48.846;9.230;2023-03-25T00:07:05;8.60;91.30
680;DHT22;322;48.846;9.230;2023-03-25T00:09:32;8.60;91.60
680;DHT22;322;48.846;9.230;2023-03-25T00:11:59;8.60;90.80
680;DHT22;322;48.846;9.230;2023-03-25T00:14:27;8.50;90.30
680;DHT22;322;48.846;9.230;2023-03-25T00:16:54;8.50;90.40
680;DHT22;322;48.846;9.230;2023-03-25T00:19:21;8.50;90.80
680;DHT22;322;48.846;9.230;2023-03-25T00:21:48;8.50;91.00
680;DHT22;322;48.846;9.230;2023-03-25T00:24:16;8.40;91.00
680;DHT22;322;48.846;9.230;2023-03-25T00:26:43;8.40;91.20
680;DHT22;322;48.846;9.230;2023-03-25T00:29:10;8.40;90.80
680;DHT22;322;48.846;9.230;2023-03-25T00:31:39;8.40;90.70
680;DHT22;322;48.846;9.230;2023-03-25T00:34:06;8.40;90.80
680;DHT22;322;48.846;9.230;2023-03-25T00:36:34;8.40;90.40
680;DHT22;322;48.846;9.230;2023-03-25T00:39:02;8.40;90.30
680;DHT22;322;48.846;9.230;2023-03-25T00:41:29;8.30;90.30
680;DHT22;322;48.846;9.230;2023-03-25T00:43:58;8.30;89.70
680;DHT22;322;48.846;9.230;2023-03-25T00:46:26;8.30;90.50
680;DHT22;322;48.846;9.230;2023-03-25T00:48:55;8.20;90.50
680;DHT22;322;48.846;9.230;2023-03-25T00:51:22;8.30;90.10
680;DHT22;322;48.846;9.230;2023-03-25T00:53:51;8.30;90.10
680;DHT22;322;48.846;9.230;2023-03-25T00:56:18;8.30;89.20
680;DHT22;322;48.846;9.230;2023-03-25T00:58:45;8.30;89.90
680;DHT22;322;48.846;9.230;2023-03-25T01:01:14;8.30;89.50
680;DHT22;322;48.846;9.230;2023-03-25T01:03:41;8.20;89.70
680;DHT22;322;48.846;9.230;2023-03-25T01:06:11;8.10;90.60
680;DHT22;322;48.846;9.230;2023-03-25T01:08:39;7.90;90.80
680;DHT22;322;48.846;9.230;2023-03-25T01:11:13;7.90;90.80
680;DHT22;322;48.846;9.230;2023-03-25T01:13:41;7.80;90.80
680;DHT22;322;48.846;9.230;2023-03-25T01:16:09;7.80;91.20
680;DHT22;322;48.846;9.230;2023-03-25T01:18:36;7.80;90.80
680;DHT22;322;48.846;9.230;2023-03-25T01:21:03;7.80;90.50
680;DHT22;322;48.846;9.230;2023-03-25T01:23:31;7.70;90.80
680;DHT22;322;48.846;9.230;2023-03-25T01:25:58;7.70;90.90
680;DHT22;322;48.846;9.230;2023-03-25T01:28:26;7.70;90.90
680;DHT22;322;48.846;9.230;2023-03-25T01:30:59;7.80;90.20
680;DHT22;322;48.846;9.230;2023-03-25T01:33:26;7.80;90.00
680;DHT22;322;48.846;9.230;2023-03-25T01:35:53;7.80;90.00
680;DHT22;322;48.846;9.230;2023-03-25T01:38:19;7.80;89.70
680;DHT22;322;48.846;9.230;2023-03-25T01:40:49;7.80;89.20
680;DHT22;322;48.846;9.230;2023-03-25T01:43:16;7.80;89.10
680;DHT22;322;48.846;9.230;2023-03-25T01:45:43;7.80;89.20
680;DHT22;322;48.846;9.230;2023-03-25T01:48:14;7.80;89.40
680;DHT22;322;48.846;9.230;2023-03-25T01:50:45;7.90;87.60
680;DHT22;322;48.846;9.230;2023-03-25T01:53:14;8.00;86.80
680;DHT22;322;48.846;9.230;2023-03-25T01:55:42;8.10;86.30
680;DHT22;322;48.846;9.230;2023-03-25T01:58:14;8.20;85.90
680;DHT22;322;48.846;9.230;2023-03-25T02:00:43;8.10;86.60
680;DHT22;322;48.846;9.230;2023-03-25T02:03:11;8.10;86.70
680;DHT22;322;48.846;9.230;2023-03-25T02:05:45;8.10;86.40
680;DHT22;322;48.846;9.230;2023-03-25T02:08:14;8.00;86.60
680;DHT22;322;48.846;9.230;2023-03-25T02:10:44;7.90;88.30
680;DHT22;322;48.846;9.230;2023-03-25T02:13:13;7.90;86.50
680;DHT22;322;48.846;9.230;2023-03-25T02:15:54;7.80;87.50
680;DHT22;322;48.846;9.230;2023-03-25T02:18:32;7.80;87.90
680;DHT22;322;48.846;9.230;2023-03-25T02:24:39;7.80;87.90
680;DHT22;322;48.846;9.230;2023-03-25T02:27:22;7.90;87.10
680;DHT22;322;48.846;9.230;2023-03-25T02:39:11;8.40;84.80
680;DHT22;322;48.846;9.230;2023-03-25T02:41:43;8.40;86.40
680;DHT22;322;48.846;9.230;2023-03-25T02:44:13;8.40;85.50
680;DHT22;322;48.846;9.230;2023-03-25T02:46:47;8.40;86.50
680;DHT22;322;48.846;9.230;2023-03-25T02:49:18;8.30;86.70
680;DHT22;322;48.846;9.230;2023-03-25T02:51:49;7.20;89.20
680;DHT22;322;48.846;9.230;2023-03-25T02:54:20;6.20;93.40
680;DHT22;322;48.846;9.230;2023-03-25T02:56:49;5.90;94.50
680;DHT22;322;48.846;9.230;2023-03-25T02:59:22;5.90;95.00
680;DHT22;322;48.846;9.230;2023-03-25T03:01:50;5.80;95.00
680;DHT22;322;48.846;9.230;2023-03-25T03:04:23;5.80;94.90
680;DHT22;322;48.846;9.230;2023-03-25T03:06:50;5.80;94.40
680;DHT22;322;48.846;9.230;2023-03-25T03:09:24;5.80;94.60
680;DHT22;322;48.846;9.230;2023-03-25T03:12:03;5.80;95.00
680;DHT22;322;48.846;9.230;2023-03-25T03:14:42;5.80;95.20
680;DHT22;322;48.846;9.230;2023-03-25T03:17:18;5.80;95.30
680;DHT22;322;48.846;9.230;2023-03-25T03:19:49;5.80;95.40
680;DHT22;322;48.846;9.230;2023-03-25T03:22:33;5.80;95.50
680;DHT22;322;48.846;9.230;2023-03-25T03:25:08;5.90;95.60
680;DHT22;322;48.846;9.230;2023-03-25T03:27:40;5.80;95.70
680;DHT22;322;48.846;9.230;2023-03-25T03:30:12;5.90;95.80
680;DHT22;322;48.846;9.230;2023-03-25T03:32:42;5.90;96.00
680;DHT22;322;48.846;9.230;2023-03-25T03:35:15;5.90;95.60
680;DHT22;322;48.846;9.230;2023-03-25T03:37:47;5.90;95.70
680;DHT22;322;48.846;9.230;2023-03-25T03:40:20;5.90;95.70
680;DHT22;322;48.846;9.230;2023-03-25T03:42:51;5.90;96.10
680;DHT22;322;48.846;9.230;2023-03-25T03:45:23;5.90;96.10
680;DHT22;322;48.846;9.230;2023-03-25T03:47:53;5.90;96.00
680;DHT22;322;48.846;9.230;2023-03-25T03:50:25;5.90;96.60
680;DHT22;322;48.846;9.230;2023-03-25T03:52:59;6.00;96.00
680;DHT22;322;48.846;9.230;2023-03-25T03:55:33;6.00;96.20
680;DHT22;322;48.846;9.230;2023-03-25T03:58:06;6.00;96.20
680;DHT22;322;48.846;9.230;2023-03-25T04:00:39;6.00;96.60
680;DHT22;322;48.846;9.230;2023-03-25T04:03:13;6.10;96.20
680;DHT22;322;48.846;9.230;2023-03-25T04:05:43;6.20;95.80
680;DHT22;322;48.846;9.230;2023-03-25T04:08:17;6.10;95.80
680;DHT22;322;48.846;9.230;2023-03-25T04:10:51;6.10;95.80
680;DHT22;322;48.846;9.230;2023-03-25T04:13:25;6.20;95.70
680;DHT22;322;48.846;9.230;2023-03-25T04:15:56;6.30;95.20
680;DHT22;322;48.846;9.230;2023-03-25T04:18:24;6.30;94.90
680;DHT22;322;48.846;9.230;2023-03-25T04:20:53;6.30;94.80
680;DHT22;322;48.846;9.230;2023-03-25T04:23:20;6.40;94.30
680;DHT22;322;48.846;9.230;2023-03-25T04:25:48;6.50;94.20
680;DHT22;322;48.846;9.230;2023-03-25T04:28:17;6.50;94.30
680;DHT22;322;48.846;9.230;2023-03-25T04:30:44;6.40;94.00
680;DHT22;322;48.846;9.230;2023-03-25T04:33:11;6.40;94.30
680;DHT22;322;48.846;9.230;2023-03-25T04:35:39;6.30;94.20
680;DHT22;322;48.846;9.230;2023-03-25T04:38:07;6.30;94.30
680;DHT22;322;48.846;9.230;2023-03-25T04:40:33;6.30;94.10
680;DHT22;322;48.846;9.230;2023-03-25T04:43:01;6.30;93.70
680;DHT22;322;48.846;9.230;2023-03-25T04:45:28;6.20;93.80
680;DHT22;322;48.846;9.230;2023-03-25T04:48:00;6.20;94.00
680;DHT22;322;48.846;9.230;2023-03-25T04:50:31;6.20;93.90
680;DHT22;322;48.846;9.230;2023-03-25T04:52:58;6.20;94.00
680;DHT22;322;48.846;9.230;2023-03-25T04:55:26;6.10;94.00
680;DHT22;322;48.846;9.230;2023-03-25T04:57:53;6.10;93.60
680;DHT22;322;48.846;9.230;2023-03-25T05:00:23;6.10;93.80
680;DHT22;322;48.846;9.230;2023-03-25T05:02:52;6.10;93.80
680;DHT22;322;48.846;9.230;2023-03-25T05:05:22;6.10;94.00
680;DHT22;322;48.846;9.230;2023-03-25T05:07:50;6.00;93.80
680;DHT22;322;48.846;9.230;2023-03-25T05:10:19;6.00;93.90
680;DHT22;322;48.846;9.230;2023-03-25T05:12:46;6.00;93.70
680;DHT22;322;48.846;9.230;2023-03-25T05:15:13;6.10;93.60
680;DHT22;322;48.846;9.230;2023-03-25T05:17:43;6.10;93.90
680;DHT22;322;48.846;9.230;2023-03-25T05:20:10;6.20;93.80
680;DHT22;322;48.846;9.230;2023-03-25T05:22:38;6.20;94.20
680;DHT22;322;48.846;9.230;2023-03-25T05:25:07;6.20;94.50
680;DHT22;322;48.846;9.230;2023-03-25T05:27:35;6.20;94.30
680;DHT22;322;48.846;9.230;2023-03-25T05:30:03;6.40;93.90
680;DHT22;322;48.846;9.230;2023-03-25T05:32:30;6.50;93.80
680;DHT22;322;48.846;9.230;2023-03-25T05:34:59;6.50;93.10
680;DHT22;322;48.846;9.230;2023-03-25T05:37:27;6.50;93.20
680;DHT22;322;48.846;9.230;2023-03-25T05:39:54;6.50;92.90
680;DHT22;322;48.846;9.230;2023-03-25T05:42:21;6.50;93.20
680;DHT22;322;48.846;9.230;2023-03-25T05:44:48;6.50;92.40
680;DHT22;322;48.846;9.230;2023-03-25T05:47:17;6.60;92.30
680;DHT22;322;48.846;9.230;2023-03-25T05:49:44;6.70;92.00
680;DHT22;322;48.846;9.230;2023-03-25T05:52:13;6.80;91.80
680;DHT22;322;48.846;9.230;2023-03-25T05:54:41;6.90;91.80
680;DHT22;322;48.846;9.230;2023-03-25T05:57:08;6.90;91.70
680;DHT22;322;48.846;9.230;2023-03-25T05:59:35;6.90;91.00
680;DHT22;322;48.846;9.230;2023-03-25T06:02:03;7.00;91.40
680;DHT22;322;48.846;9.230;2023-03-25T06:04:32;7.10;91.20
680;DHT22;322;48.846;9.230;2023-03-25T06:07:04;7.20;91.60
680;DHT22;322;48.846;9.230;2023-03-25T06:09:35;7.30;91.10
680;DHT22;322;48.846;9.230;2023-03-25T06:12:02;7.30;90.60
680;DHT22;322;48.846;9.230;2023-03-25T06:14:29;7.30;90.40
680;DHT22;322;48.846;9.230;2023-03-25T06:16:56;7.30;89.30
680;DHT22;322;48.846;9.230;2023-03-25T06:19:22;7.30;90.20
680;DHT22;322;48.846;9.230;2023-03-25T06:21:50;7.30;90.70
680;DHT22;322;48.846;9.230;2023-03-25T06:24:18;7.50;90.10
680;DHT22;322;48.846;9.230;2023-03-25T06:26:46;7.60;90.00
680;DHT22;322;48.846;9.230;2023-03-25T06:29:12;7.70;90.40
680;DHT22;322;48.846;9.230;2023-03-25T06:31:39;7.70;87.40
680;DHT22;322;48.846;9.230;2023-03-25T06:34:07;7.90;87.90
680;DHT22;322;48.846;9.230;2023-03-25T06:36:34;8.00;88.00
680;DHT22;322;48.846;9.230;2023-03-25T06:39:02;8.10;87.30
680;DHT22;322;48.846;9.230;2023-03-25T06:41:30;8.00;86.10
680;DHT22;322;48.846;9.230;2023-03-25T06:44:01;8.00;88.40
680;DHT22;322;48.846;9.230;2023-03-25T06:46:29;7.90;87.40
680;DHT22;322;48.846;9.230;2023-03-25T06:48:56;7.90;87.60
680;DHT22;322;48.846;9.230;2023-03-25T06:51:23;8.00;87.20
680;DHT22;322;48.846;9.230;2023-03-25T06:53:49;8.10;87.00
680;DHT22;322;48.846;9.230;2023-03-25T06:56:16;8.30;89.80
680;DHT22;322;48.846;9.230;2023-03-25T06:58:43;8.40;87.10
680;DHT22;322;48.846;9.230;2023-03-25T07:01:11;8.40;86.20
680;DHT22;322;48.846;9.230;2023-03-25T07:03:38;8.40;86.20
680;DHT22;322;48.846;9.230;2023-03-25T07:06:06;8.40;87.10
680;DHT22;322;48.846;9.230;2023-03-25T07:08:33;8.40;86.30
680;DHT22;322;48.846;9.230;2023-03-25T07:11:00;8.50;84.40
680;DHT22;322;48.846;9.230;2023-03-25T07:13:27;8.60;85.50
680;DHT22;322;48.846;9.230;2023-03-25T07:15:55;8.70;82.90
680;DHT22;322;48.846;9.230;2023-03-25T07:18:24;8.80;83.10
680;DHT22;322;48.846;9.230;2023-03-25T07:20:51;9.10;82.80
680;DHT22;322;48.846;9.230;2023-03-25T07:23:18;9.60;78.50
680;DHT22;322;48.846;9.230;2023-03-25T07:25:45;9.90;77.80
680;DHT22;322;48.846;9.230;2023-03-25T07:28:12;10.00;75.90
680;DHT22;322;48.846;9.230;2023-03-25T07:30:39;9.80;75.30
680;DHT22;322;48.846;9.230;2023-03-25T07:33:05;9.70;76.10
680;DHT22;322;48.846;9.230;2023-03-25T07:35:33;9.70;74.90
680;DHT22;322;48.846;9.230;2023-03-25T07:38:01;9.90;75.00
680;DHT22;322;48.846;9.230;2023-03-25T07:40:28;9.90;74.50
680;DHT22;322;48.846;9.230;2023-03-25T07:42:55;9.70;73.40
680;DHT22;322;48.846;9.230;2023-03-25T07:45:21;9.80;75.70
680;DHT22;322;48.846;9.230;2023-03-25T07:47:48;9.90;74.80
680;DHT22;322;48.846;9.230;2023-03-25T07:50:16;10.10;73.90
680;DHT22;322;48.846;9.230;2023-03-25T07:52:44;10.30;75.00
680;DHT22;322;48.846;9.230;2023-03-25T07:55:11;10.60;75.00
680;DHT22;322;48.846;9.230;2023-03-25T07:57:39;10.60;72.90
680;DHT22;322;48.846;9.230;2023-03-25T08:00:07;10.50;70.50
680;DHT22;322;48.846;9.230;2023-03-25T08:02:35;10.70;70.50
680;DHT22;322;48.846;9.230;2023-03-25T08:05:02;10.90;70.40
680;DHT22;322;48.846;9.230;2023-03-25T08:07:30;11.10;68.90
680;DHT22;322;48.846;9.230;2023-03-25T08:09:58;11.10;68.50
680;DHT22;322;48.846;9.230;2023-03-25T08:12:25;11.10;69.40
680;DHT22;322;48.846;9.230;2023-03-25T08:14:52;11.30;69.30
680;DHT22;322;48.846;9.230;2023-03-25T08:17:18;11.60;67.40
680;DHT22;322;48.846;9.230;2023-03-25T08:19:45;11.80;66.00
680;DHT22;322;48.846;9.230;2023-03-25T08:22:12;11.90;66.10
680;DHT22;322;48.846;9.230;2023-03-25T08:24:39;11.90;65.10
680;DHT22;322;48.846;9.230;2023-03-25T08:27:07;12.00;65.20
680;DHT22;322;48.846;9.230;2023-03-25T08:29:34;11.90;67.50
680;DHT22;322;48.846;9.230;2023-03-25T08:32:01;12.20;66.40
680;DHT22;322;48.846;9.230;2023-03-25T08:34:28;12.20;63.50
680;DHT22;322;48.846;9.230;2023-03-25T08:36:59;12.10;64.60
680;DHT22;322;48.846;9.230;2023-03-25T08:39:26;12.00;63.80
680;DHT22;322;48.846;9.230;2023-03-25T08:41:54;11.90;63.80
680;DHT22;322;48.846;9.230;2023-03-25T08:44:24;12.10;63.50
680;DHT22;322;48.846;9.230;2023-03-25T08:46:52;12.10;61.20
680;DHT22;322;48.846;9.230;2023-03-25T08:49:18;11.80;61.90
680;DHT22;322;48.846;9.230;2023-03-25T08:51:45;11.60;63.20
680;DHT22;322;48.846;9.230;2023-03-25T08:54:12;11.20;68.10
680;DHT22;322;48.846;9.230;2023-03-25T08:56:39;10.70;73.10
680;DHT22;322;48.846;9.230;2023-03-25T08:59:05;10.20;74.10
680;DHT22;322;48.846;9.230;2023-03-25T09:01:34;10.00;74.80
680;DHT22;322;48.846;9.230;2023-03-25T09:04:01;9.90;77.10
680;DHT22;322;48.846;9.230;2023-03-25T09:06:28;9.80;76.20
680;DHT22;322;48.846;9.230;2023-03-25T09:08:55;9.70;77.90
680;DHT22;322;48.846;9.230;2023-03-25T09:11:21;9.70;78.10
680;DHT22;322;48.846;9.230;2023-03-25T09:13:48;9.50;79.30
680;DHT22;322;48.846;9.230;2023-03-25T09:16:15;9.10;81.40
680;DHT22;322;48.846;9.230;2023-03-25T09:18:43;8.90;85.10
680;DHT22;322;48.846;9.230;2023-03-25T09:21:10;9.10;90.20
680;DHT22;322;48.846;9.230;2023-03-25T09:23:37;9.70;88.10
680;DHT22;322;48.846;9.230;2023-03-25T09:26:04;10.00;83.30
680;DHT22;322;48.846;9.230;2023-03-25T09:28:31;10.00;81.20
680;DHT22;322;48.846;9.230;2023-03-25T09:30:58;9.80;83.20
680;DHT22;322;48.846;9.230;2023-03-25T09:33:25;10.00;82.60
680;DHT22;322;48.846;9.230;2023-03-25T09:35:53;10.20;81.70
680;DHT22;322;48.846;9.230;2023-03-25T09:38:20;10.30;80.40
680;DHT22;322;48.846;9.230;2023-03-25T09:40:48;10.30;79.80
680;DHT22;322;48.846;9.230;2023-03-25T09:43:31;10.50;80.50
680;DHT22;322;48.846;9.230;2023-03-25T09:46:00;10.60;79.30
680;DHT22;322;48.846;9.230;2023-03-25T09:48:31;10.70;77.60
680;DHT22;322;48.846;9.230;2023-03-25T09:51:03;11.00;76.10
680;DHT22;322;48.846;9.230;2023-03-25T09:53:35;11.20;75.30
680;DHT22;322;48.846;9.230;2023-03-25T09:56:04;11.40;76.20
680;DHT22;322;48.846;9.230;2023-03-25T09:58:39;11.40;75.10
680;DHT22;322;48.846;9.230;2023-03-25T10:01:21;11.20;73.60
680;DHT22;322;48.846;9.230;2023-03-25T10:03:58;11.10;76.10
680;DHT22;322;48.846;9.230;2023-03-25T10:06:30;11.00;77.30
680;DHT22;322;48.846;9.230;2023-03-25T10:09:13;11.00;79.10
680;DHT22;322;48.846;9.230;2023-03-25T10:11:46;11.30;76.80
680;DHT22;322;48.846;9.230;2023-03-25T10:14:19;11.70;73.90
680;DHT22;322;48.846;9.230;2023-03-25T10:16:59;12.30;73.90
680;DHT22;322;48.846;9.230;2023-03-25T10:19:42;12.90;70.60
680;DHT22;322;48.846;9.230;2023-03-25T10:22:17;13.40;68.10
680;DHT22;322;48.846;9.230;2023-03-25T10:24:49;13.90;67.40
680;DHT22;322;48.846;9.230;2023-03-25T10:27:21;14.20;63.80
680;DHT22;322;48.846;9.230;2023-03-25T10:29:53;14.20;63.50
680;DHT22;322;48.846;9.230;2023-03-25T10:32:30;14.10;63.40
680;DHT22;322;48.846;9.230;2023-03-25T10:34:58;14.40;61.90
680;DHT22;322;48.846;9.230;2023-03-25T10:37:31;14.10;61.20
680;DHT22;322;48.846;9.230;2023-03-25T10:40:12;14.30;59.30
680;DHT22;322;48.846;9.230;2023-03-25T10:42:44;13.40;58.40
680;DHT22;322;48.846;9.230;2023-03-25T10:45:16;12.70;60.30
680;DHT22;322;48.846;9.230;2023-03-25T10:47:45;12.50;62.30
680;DHT22;322;48.846;9.230;2023-03-25T10:50:14;12.30;61.40
680;DHT22;322;48.846;9.230;2023-03-25T10:52:43;11.90;62.20
680;DHT22;322;48.846;9.230;2023-03-25T10:55:20;11.80;65.10
680;DHT22;322;48.846;9.230;2023-03-25T10:57:48;12.10;65.50
680;DHT22;322;48.846;9.230;2023-03-25T11:00:17;12.50;65.50
680;DHT22;322;48.846;9.230;2023-03-25T11:02:44;12.70;61.20
680;DHT22;322;48.846;9.230;2023-03-25T11:05:13;13.10;60.00
680;DHT22;322;48.846;9.230;2023-03-25T11:07:47;13.60;57.50
680;DHT22;322;48.846;9.230;2023-03-25T11:10:18;13.40;56.60
680;DHT22;322;48.846;9.230;2023-03-25T11:12:45;13.30;57.60
680;DHT22;322;48.846;9.230;2023-03-25T11:15:18;13.80;54.90
680;DHT22;322;48.846;9.230;2023-03-25T11:17:46;14.00;55.10
680;DHT22;322;48.846;9.230;2023-03-25T11:20:19;14.40;54.90
680;DHT22;322;48.846;9.230;2023-03-25T11:22:51;15.00;55.30
680;DHT22;322;48.846;9.230;2023-03-25T11:25:23;14.90;51.80
680;DHT22;322;48.846;9.230;2023-03-25T11:27:54;14.10;52.50
680;DHT22;322;48.846;9.230;2023-03-25T11:30:23;13.80;54.00
680;DHT22;322;48.846;9.230;2023-03-25T11:32:57;14.10;53.90
680;DHT22;322;48.846;9.230;2023-03-25T11:35:27;14.50;53.80
680;DHT22;322;48.846;9.230;2023-03-25T11:37:57;15.00;52.50
680;DHT22;322;48.846;9.230;2023-03-25T11:40:26;15.40;52.20
680;DHT22;322;48.846;9.230;2023-03-25T11:42:55;15.00;50.30
680;DHT22;322;48.846;9.230;2023-03-25T11:45:24;14.90;51.40
680;DHT22;322;48.846;9.230;2023-03-25T11:47:57;15.10;50.70
680;DHT22;322;48.846;9.230;2023-03-25T11:50:27;14.80;50.30
680;DHT22;322;48.846;9.230;2023-03-25T11:52:58;15.30;51.90
680;DHT22;322;48.846;9.230;2023-03-25T11:55:27;15.70;50.50
680;DHT22;322;48.846;9.230;2023-03-25T11:57:57;15.40;49.00
680;DHT22;322;48.846;9.230;2023-03-25T12:00:39;15.10;50.10
680;DHT22;322;48.846;9.230;2023-03-25T12:03:18;14.70;52.00
680;DHT22;322;48.846;9.230;2023-03-25T12:05:57;14.00;51.80
680;DHT22;322;48.846;9.230;2023-03-25T12:08:28;13.90;54.20
680;DHT22;322;48.846;9.230;2023-03-25T12:10:59;14.20;50.80
680;DHT22;322;48.846;9.230;2023-03-25T12:13:34;14.50;53.20
680;DHT22;322;48.846;9.230;2023-03-25T12:16:14;14.80;49.40
680;DHT22;322;48.846;9.230;2023-03-25T12:19:04;14.80;49.70
680;DHT22;322;48.846;9.230;2023-03-25T12:21:42;15.00;49.60
680;DHT22;322;48.846;9.230;2023-03-25T12:24:36;16.10;49.20
680;DHT22;322;48.846;9.230;2023-03-25T12:27:15;15.90;47.60
680;DHT22;322;48.846;9.230;2023-03-25T12:29:46;16.10;47.70
680;DHT22;322;48.846;9.230;2023-03-25T12:32:25;15.50;48.20
680;DHT22;322;48.846;9.230;2023-03-25T12:35:01;14.70;51.30
680;DHT22;322;48.846;9.230;2023-03-25T12:37:47;15.20;49.70
680;DHT22;322;48.846;9.230;2023-03-25T12:40:37;14.60;50.00
680;DHT22;322;48.846;9.230;2023-03-25T12:43:09;13.90;51.70
680;DHT22;322;48.846;9.230;2023-03-25T12:45:48;14.00;53.50
680;DHT22;322;48.846;9.230;2023-03-25T12:48:27;14.00;53.70
680;DHT22;322;48.846;9.230;2023-03-25T12:51:03;12.40;60.00
680;DHT22;322;48.846;9.230;2023-03-25T12:53:46;11.20;70.50
680;DHT22;322;48.846;9.230;2023-03-25T12:56:40;10.60;75.40
680;DHT22;322;48.846;9.230;2023-03-25T13:02:08;12.50;65.10
680;DHT22;322;48.846;9.230;2023-03-25T13:04:56;13.30;59.80
680;DHT22;322;48.846;9.230;2023-03-25T13:07:32;14.20;58.20
680;DHT22;322;48.846;9.230;2023-03-25T13:10:05;14.80;53.80
680;DHT22;322;48.846;9.230;2023-03-25T13:12:38;15.30;52.50
680;DHT22;322;48.846;9.230;2023-03-25T13:15:14;15.80;51.80
680;DHT22;322;48.846;9.230;2023-03-25T13:17:46;15.70;50.50
680;DHT22;322;48.846;9.230;2023-03-25T13:20:14;15.00;49.90
680;DHT22;322;48.846;9.230;2023-03-25T13:22:45;15.10;51.30
680;DHT22;322;48.846;9.230;2023-03-25T13:25:23;15.00;51.80
680;DHT22;322;48.846;9.230;2023-03-25T13:30:27;13.60;52.00
680;DHT22;322;48.846;9.230;2023-03-25T13:32:58;12.70;55.20
680;DHT22;322;48.846;9.230;2023-03-25T13:35:36;12.20;56.20
680;DHT22;322;48.846;9.230;2023-03-25T13:38:10;12.00;57.20
680;DHT22;322;48.846;9.230;2023-03-25T13:40:43;11.70;57.30
680;DHT22;322;48.846;9.230;2023-03-25T13:43:23;12.10;58.30
680;DHT22;322;48.846;9.230;2023-03-25T13:45:54;12.80;56.80
680;DHT22;322;48.846;9.230;2023-03-25T13:48:26;13.30;56.00
680;DHT22;322;48.846;9.230;2023-03-25T13:50:58;13.90;54.40
680;DHT22;322;48.846;9.230;2023-03-25T13:53:30;14.80;52.40
680;DHT22;322;48.846;9.230;2023-03-25T13:56:19;15.90;52.10
680;DHT22;322;48.846;9.230;2023-03-25T13:59:12;16.60;48.20
680;DHT22;322;48.846;9.230;2023-03-25T14:01:55;17.10;48.50
680;DHT22;322;48.846;9.230;2023-03-25T14:10:52;15.40;48.60
680;DHT22;322;48.846;9.230;2023-03-25T14:13:23;14.10;50.90
680;DHT22;322;48.846;9.230;2023-03-25T14:15:57;13.10;56.90
680;DHT22;322;48.846;9.230;2023-03-25T14:18:25;11.40;65.50
680;DHT22;322;48.846;9.230;2023-03-25T14:20:56;10.50;70.50
680;DHT22;322;48.846;9.230;2023-03-25T14:23:23;9.90;75.70
680;DHT22;322;48.846;9.230;2023-03-25T14:25:53;9.40;80.50
680;DHT22;322;48.846;9.230;2023-03-25T14:28:32;9.40;79.20
680;DHT22;322;48.846;9.230;2023-03-25T14:31:16;9.70;80.00
680;DHT22;322;48.846;9.230;2023-03-25T14:34:12;10.00;78.80
680;DHT22;322;48.846;9.230;2023-03-25T14:39:52;11.60;69.40
680;DHT22;322;48.846;9.230;2023-03-25T14:42:27;13.10;61.40
680;DHT22;322;48.846;9.230;2023-03-25T14:47:58;15.00;51.90
680;DHT22;322;48.846;9.230;2023-03-25T14:50:32;15.60;52.60
680;DHT22;322;48.846;9.230;2023-03-25T14:53:02;16.20;50.30
680;DHT22;322;48.846;9.230;2023-03-25T14:55:33;15.80;48.90
680;DHT22;322;48.846;9.230;2023-03-25T14:58:02;15.40;49.80
680;DHT22;322;48.846;9.230;2023-03-25T15:00:32;16.00;49.60
680;DHT22;322;48.846;9.230;2023-03-25T15:03:03;16.80;48.30
680;DHT22;322;48.846;9.230;2023-03-25T15:05:36;16.60;47.20
680;DHT22;322;48.846;9.230;2023-03-25T15:08:11;16.50;48.00
680;DHT22;322;48.846;9.230;2023-03-25T15:10:40;16.50;46.60
680;DHT22;322;48.846;9.230;2023-03-25T15:13:11;16.30;47.60
680;DHT22;322;48.846;9.230;2023-03-25T15:15:56;16.70;47.80
680;DHT22;322;48.846;9.230;2023-03-25T15:18:58;16.10;47.00
680;DHT22;322;48.846;9.230;2023-03-25T15:21:30;16.50;47.60
680;DHT22;322;48.846;9.230;2023-03-25T15:24:02;17.10;45.40
680;DHT22;322;48.846;9.230;2023-03-25T15:26:31;17.50;44.90
680;DHT22;322;48.846;9.230;2023-03-25T15:29:36;17.50;44.10
680;DHT22;322;48.846;9.230;2023-03-25T15:32:17;17.50;43.30
680;DHT22;322;48.846;9.230;2023-03-25T15:35:06;17.40;42.40
680;DHT22;322;48.846;9.230;2023-03-25T15:37:57;16.50;44.40
680;DHT22;322;48.846;9.230;2023-03-25T15:40:32;16.20;44.80
680;DHT22;322;48.846;9.230;2023-03-25T15:43:21;16.30;45.10
680;DHT22;322;48.846;9.230;2023-03-25T15:46:35;15.60;45.10
680;DHT22;322;48.846;9.230;2023-03-25T15:52:22;14.10;48.60
680;DHT22;322;48.846;9.230;2023-03-25T15:54:53;13.90;49.40
680;DHT22;322;48.846;9.230;2023-03-25T15:57:23;14.00;50.50
680;DHT22;322;48.846;9.230;2023-03-25T15:59:57;14.10;49.10
680;DHT22;322;48.846;9.230;2023-03-25T16:02:30;13.90;49.60
680;DHT22;322;48.846;9.230;2023-03-25T16:04:58;13.80;49.00
680;DHT22;322;48.846;9.230;2023-03-25T16:07:27;13.80;50.20
680;DHT22;322;48.846;9.230;2023-03-25T16:09:55;13.90;48.90
680;DHT22;322;48.846;9.230;2023-03-25T16:12:30;13.80;48.90
680;DHT22;322;48.846;9.230;2023-03-25T16:14:58;13.80;49.40
680;DHT22;322;48.846;9.230;2023-03-25T16:17:30;13.80;49.80
680;DHT22;322;48.846;9.230;2023-03-25T16:20:00;13.80;48.80
680;DHT22;322;48.846;9.230;2023-03-25T16:22:33;13.60;48.70
680;DHT22;322;48.846;9.230;2023-03-25T16:25:03;13.60;47.90
680;DHT22;322;48.846;9.230;2023-03-25T16:27:34;13.60;47.70
680;DHT22;322;48.846;9.230;2023-03-25T16:30:06;13.50;48.20
680;DHT22;322;48.846;9.230;2023-03-25T16:32:33;13.30;47.50
680;DHT22;322;48.846;9.230;2023-03-25T16:35:01;13.00;48.20
680;DHT22;322;48.846;9.230;2023-03-25T16:37:31;12.80;49.10
680;DHT22;322;48.846;9.230;2023-03-25T16:39:58;12.70;48.90
680;DHT22;322;48.846;9.230;2023-03-25T16:42:27;12.50;49.00
680;DHT22;322;48.846;9.230;2023-03-25T16:44:56;12.50;49.30
680;DHT22;322;48.846;9.230;2023-03-25T16:47:24;12.50;49.70
680;DHT22;322;48.846;9.230;2023-03-25T16:49:53;12.50;49.30
680;DHT22;322;48.846;9.230;2023-03-25T16:52:24;12.50;49.80
680;DHT22;322;48.846;9.230;2023-03-25T16:55:13;12.50;49.70
680;DHT22;322;48.846;9.230;2023-03-25T16:57:45;12.30;49.80
680;DHT22;322;48.846;9.230;2023-03-25T17:00:15;12.30;50.30
680;DHT22;322;48.846;9.230;2023-03-25T17:02:43;12.20;50.70
680;DHT22;322;48.846;9.230;2023-03-25T17:05:15;12.10;50.10
680;DHT22;322;48.846;9.230;2023-03-25T17:07:43;12.10;51.00
680;DHT22;322;48.846;9.230;2023-03-25T17:10:18;12.20;51.00
680;DHT22;322;48.846;9.230;2023-03-25T17:12:52;12.20;51.10
680;DHT22;322;48.846;9.230;2023-03-25T17:15:19;12.30;50.80
680;DHT22;322;48.846;9.230;2023-03-25T17:17:51;12.30;50.70
680;DHT22;322;48.846;9.230;2023-03-25T17:20:23;12.20;51.30
680;DHT22;322;48.846;9.230;2023-03-25T17:23:01;12.10;51.20
680;DHT22;322;48.846;9.230;2023-03-25T17:25:33;12.10;52.10
680;DHT22;322;48.846;9.230;2023-03-25T17:28:07;12.00;52.60
680;DHT22;322;48.846;9.230;2023-03-25T17:30:44;11.90;52.60
680;DHT22;322;48.846;9.230;2023-03-25T17:33:14;11.80;52.80
680;DHT22;322;48.846;9.230;2023-03-25T17:35:47;11.80;52.80
680;DHT22;322;48.846;9.230;2023-03-25T17:38:23;11.70;53.00
680;DHT22;322;48.846;9.230;2023-03-25T17:40:58;11.60;53.20
680;DHT22;322;48.846;9.230;2023-03-25T17:43:27;11.50;53.60